sensor_id;sensor_type;location;lat;lon;timestamp;pressure;altitude;pressure_sealevel;temperature;humidity
60920;BME280;59039;52.108;19.942;2023-09-19T00:00:17;99877.11;;;19.98;69.76
60920;BME280;59039;52.108;19.942;2023-09-19T00:02:42;99872.06;;;19.99;69.71
60920;BME280;59039;52.108;19.942;2023-09-19T00:05:07;99870.52;;;19.99;69.64
60920;BME280;59039;52.108;19.942;2023-09-19T00:07:33;99865.09;;;19.98;69.59
60920;BME280;59039;52.108;19.942;2023-09-19T00:09:58;99864.09;;;19.98;69.57
60920;BME280;59039;52.108;19.942;2023-09-19T00:12:23;99865.66;;;19.97;69.59
60920;BME280;59039;52.108;19.942;2023-09-19T00:14:48;99865.02;;;19.96;69.56
60920;BME280;59039;52.108;19.942;2023-09-19T00:17:13;99862.39;;;19.95;69.43
60920;BME280;59039;52.108;19.942;2023-09-19T00:19:39;99862.33;;;19.93;69.50
60920;BME280;59039;52.108;19.942;2023-09-19T00:22:04;99859.92;;;19.90;69.46
60920;BME280;59039;52.108;19.942;2023-09-19T00:24:29;99855.02;;;19.88;69.49
60920;BME280;59039;52.108;19.942;2023-09-19T00:26:55;99850.79;;;19.85;69.53
60920;BME280;59039;52.108;19.942;2023-09-19T00:29:20;99854.35;;;19.82;69.62
60920;BME280;59039;52.108;19.942;2023-09-19T00:31:45;99853.90;;;19.79;69.56
60920;BME280;59039;52.108;19.942;2023-09-19T00:34:10;99852.05;;;19.75;69.65
60920;BME280;59039;52.108;19.942;2023-09-19T00:36:37;99848.08;;;19.72;69.76
60920;BME280;59039;52.108;19.942;2023-09-19T00:39:02;99849.29;;;19.69;69.91
60920;BME280;59039;52.108;19.942;2023-09-19T00:41:27;99844.68;;;19.67;69.91
60920;BME280;59039;52.108;19.942;2023-09-19T00:43:52;99840.64;;;19.64;70.03
60920;BME280;59039;52.108;19.942;2023-09-19T00:46:18;99837.14;;;19.61;70.06
60920;BME280;59039;52.108;19.942;2023-09-19T00:48:43;99839.61;;;19.59;70.23
60920;BME280;59039;52.108;19.942;2023-09-19T00:51:08;99838.98;;;19.59;70.33
60920;BME280;59039;52.108;19.942;2023-09-19T00:53:34;99835.69;;;19.57;70.32
60920;BME280;59039;52.108;19.942;2023-09-19T00:55:59;99832.23;;;19.56;70.17
60920;BME280;59039;52.108;19.942;2023-09-19T00:58:25;99829.10;;;19.56;70.26
60920;BME280;59039;52.108;19.942;2023-09-19T01:00:50;99829.93;;;19.57;70.37
60920;BME280;59039;52.108;19.942;2023-09-19T01:03:17;99827.66;;;19.56;70.39
60920;BME280;59039;52.108;19.942;2023-09-19T01:05:42;99826.89;;;19.56;70.31
60920;BME280;59039;52.108;19.942;2023-09-19T01:08:07;99827.83;;;19.56;70.39
60920;BME280;59039;52.108;19.942;2023-09-19T01:10:33;99824.52;;;19.56;70.49
60920;BME280;59039;52.108;19.942;2023-09-19T01:13:21;99823.86;;;19.56;70.52
60920;BME280;59039;52.108;19.942;2023-09-19T01:16:26;99822.01;;;19.57;70.46
60920;BME280;59039;52.108;19.942;2023-09-19T01:22:07;99812.71;;;19.58;70.35
60920;BME280;59039;52.108;19.942;2023-09-19T01:29:49;99806.35;;;19.58;70.23
60920;BME280;59039;52.108;19.942;2023-09-19T01:32:18;99802.52;;;19.58;70.28
60920;BME280;59039;52.108;19.942;2023-09-19T01:34:53;99800.06;;;19.59;70.27
60920;BME280;59039;52.108;19.942;2023-09-19T01:37:20;99800.09;;;19.59;70.20
60920;BME280;59039;52.108;19.942;2023-09-19T01:39:47;99796.91;;;19.60;70.39
60920;BME280;59039;52.108;19.942;2023-09-19T01:42:27;99797.20;;;19.60;70.51
60920;BME280;59039;52.108;19.942;2023-09-19T01:45:09;99794.13;;;19.61;70.45
60920;BME280;59039;52.108;19.942;2023-09-19T01:47:46;99790.18;;;19.62;70.25
60920;BME280;59039;52.108;19.942;2023-09-19T01:50:21;99790.89;;;19.64;70.13
60920;BME280;59039;52.108;19.942;2023-09-19T01:52:59;99789.78;;;19.64;70.09
60920;BME280;59039;52.108;19.942;2023-09-19T01:55:28;99787.27;;;19.65;70.14
60920;BME280;59039;52.108;19.942;2023-09-19T01:58:01;99786.48;;;19.65;69.96
60920;BME280;59039;52.108;19.942;2023-09-19T02:00:32;99787.20;;;19.66;70.13
60920;BME280;59039;52.108;19.942;2023-09-19T02:02:59;99794.30;;;19.67;70.00
60920;BME280;59039;52.108;19.942;2023-09-19T02:05:25;99787.08;;;19.67;70.04
60920;BME280;59039;52.108;19.942;2023-09-19T02:07:51;99784.69;;;19.68;70.18
60920;BME280;59039;52.108;19.942;2023-09-19T02:10:17;99780.77;;;19.69;70.08
60920;BME280;59039;52.108;19.942;2023-09-19T02:12:42;99783.17;;;19.70;70.22
60920;BME280;59039;52.108;19.942;2023-09-19T02:15:08;99783.38;;;19.71;70.12
60920;BME280;59039;52.108;19.942;2023-09-19T02:17:33;99788.84;;;19.71;69.97
60920;BME280;59039;52.108;19.942;2023-09-19T02:19:58;99785.34;;;19.73;69.88
60920;BME280;59039;52.108;19.942;2023-09-19T02:22:23;99780.96;;;19.74;69.86
60920;BME280;59039;52.108;19.942;2023-09-19T02:24:49;99776.80;;;19.74;69.72
60920;BME280;59039;52.108;19.942;2023-09-19T02:27:14;99771.08;;;19.75;69.72
60920;BME280;59039;52.108;19.942;2023-09-19T02:29:39;99770.21;;;19.75;69.64
60920;BME280;59039;52.108;19.942;2023-09-19T02:32:04;99766.14;;;19.75;69.58
60920;BME280;59039;52.108;19.942;2023-09-19T02:34:30;99765.92;;;19.76;69.63
60920;BME280;59039;52.108;19.942;2023-09-19T02:36:55;99764.77;;;19.76;69.66
60920;BME280;59039;52.108;19.942;2023-09-19T02:39:20;99760.67;;;19.75;69.71
60920;BME280;59039;52.108;19.942;2023-09-19T02:41:45;99755.20;;;19.75;69.83
60920;BME280;59039;52.108;19.942;2023-09-19T02:44:11;99754.75;;;19.73;69.75
60920;BME280;59039;52.108;19.942;2023-09-19T02:46:36;99755.23;;;19.72;69.84
60920;BME280;59039;52.108;19.942;2023-09-19T02:49:02;99754.66;;;19.71;69.93
60920;BME280;59039;52.108;19.942;2023-09-19T02:51:27;99753.35;;;19.70;69.79
60920;BME280;59039;52.108;19.942;2023-09-19T02:53:53;99759.08;;;19.70;69.90
60920;BME280;59039;52.108;19.942;2023-09-19T02:56:18;99754.55;;;19.70;69.72
60920;BME280;59039;52.108;19.942;2023-09-19T02:58:43;99754.05;;;19.69;69.90
60920;BME280;59039;52.108;19.942;2023-09-19T03:01:12;99752.67;;;19.68;69.90
60920;BME280;59039;52.108;19.942;2023-09-19T03:03:37;99748.43;;;19.68;69.73
60920;BME280;59039;52.108;19.942;2023-09-19T03:06:02;99744.98;;;19.66;69.83
60920;BME280;59039;52.108;19.942;2023-09-19T03:08:27;99743.00;;;19.64;69.79
60920;BME280;59039;52.108;19.942;2023-09-19T03:10:53;99741.10;;;19.64;69.86
60920;BME280;59039;52.108;19.942;2023-09-19T03:13:18;99735.75;;;19.61;69.72
60920;BME280;59039;52.108;19.942;2023-09-19T03:15:43;99741.44;;;19.60;69.61
60920;BME280;59039;52.108;19.942;2023-09-19T03:18:08;99741.63;;;19.59;69.66
60920;BME280;59039;52.108;19.942;2023-09-19T03:20:34;99743.74;;;19.58;69.49
60920;BME280;59039;52.108;19.942;2023-09-19T03:22:59;99736.60;;;19.56;69.59
60920;BME280;59039;52.108;19.942;2023-09-19T03:25:24;99735.65;;;19.56;69.72
60920;BME280;59039;52.108;19.942;2023-09-19T03:27:49;99736.86;;;19.54;69.76
60920;BME280;59039;52.108;19.942;2023-09-19T03:30:15;99746.83;;;19.52;69.75
60920;BME280;59039;52.108;19.942;2023-09-19T03:32:47;99749.19;;;19.51;69.69
60920;BME280;59039;52.108;19.942;2023-09-19T03:35:13;99753.46;;;19.51;69.62
60920;BME280;59039;52.108;19.942;2023-09-19T03:37:38;99746.23;;;19.50;69.44
60920;BME280;59039;52.108;19.942;2023-09-19T03:40:04;99746.73;;;19.50;69.42
60920;BME280;59039;52.108;19.942;2023-09-19T03:42:29;99742.92;;;19.50;69.34
60920;BME280;59039;52.108;19.942;2023-09-19T03:44:54;99739.48;;;19.50;69.35
60920;BME280;59039;52.108;19.942;2023-09-19T03:47:19;99731.40;;;19.48;69.33
60920;BME280;59039;52.108;19.942;2023-09-19T03:49:45;99734.08;;;19.48;69.25
60920;BME280;59039;52.108;19.942;2023-09-19T03:52:10;99734.05;;;19.47;69.30
60920;BME280;59039;52.108;19.942;2023-09-19T03:54:35;99737.67;;;19.46;69.30
60920;BME280;59039;52.108;19.942;2023-09-19T03:57:00;99740.60;;;19.45;69.22
60920;BME280;59039;52.108;19.942;2023-09-19T03:59:26;99739.26;;;19.44;69.23
60920;BME280;59039;52.108;19.942;2023-09-19T04:01:51;99738.67;;;19.43;69.22
60920;BME280;59039;52.108;19.942;2023-09-19T04:04:16;99744.61;;;19.43;69.23
60920;BME280;59039;52.108;19.942;2023-09-19T04:06:41;99740.46;;;19.42;69.09
60920;BME280;59039;52.108;19.942;2023-09-19T04:09:06;99736.84;;;19.40;69.04
60920;BME280;59039;52.108;19.942;2023-09-19T04:11:32;99738.80;;;19.39;68.89
60920;BME280;59039;52.108;19.942;2023-09-19T04:13:57;99739.60;;;19.39;68.84
60920;BME280;59039;52.108;19.942;2023-09-19T04:16:23;99729.33;;;19.38;68.91
60920;BME280;59039;52.108;19.942;2023-09-19T04:18:48;99728.52;;;19.37;68.83
60920;BME280;59039;52.108;19.942;2023-09-19T04:21:13;99729.87;;;19.36;68.80
60920;BME280;59039;52.108;19.942;2023-09-19T04:23:39;99730.08;;;19.35;68.76
60920;BME280;59039;52.108;19.942;2023-09-19T04:26:04;99732.92;;;19.35;68.94
60920;BME280;59039;52.108;19.942;2023-09-19T04:28:30;99735.59;;;19.34;68.93
60920;BME280;59039;52.108;19.942;2023-09-19T04:30:56;99734.59;;;19.33;69.08
60920;BME280;59039;52.108;19.942;2023-09-19T04:33:21;99738.48;;;19.33;68.88
60920;BME280;59039;52.108;19.942;2023-09-19T04:35:49;99736.55;;;19.33;68.95
60920;BME280;59039;52.108;19.942;2023-09-19T04:38:14;99735.64;;;19.32;69.04
60920;BME280;59039;52.108;19.942;2023-09-19T04:40:39;99736.50;;;19.33;69.14
60920;BME280;59039;52.108;19.942;2023-09-19T04:43:04;99734.08;;;19.33;68.93
60920;BME280;59039;52.108;19.942;2023-09-19T04:45:30;99735.52;;;19.33;68.90
60920;BME280;59039;52.108;19.942;2023-09-19T04:47:55;99737.77;;;19.33;68.97
60920;BME280;59039;52.108;19.942;2023-09-19T04:50:20;99744.55;;;19.33;69.05
60920;BME280;59039;52.108;19.942;2023-09-19T04:52:49;99742.00;;;19.33;69.11
60920;BME280;59039;52.108;19.942;2023-09-19T04:55:14;99743.70;;;19.33;69.03
60920;BME280;59039;52.108;19.942;2023-09-19T04:57:40;99745.15;;;19.33;69.04
60920;BME280;59039;52.108;19.942;2023-09-19T05:00:05;99744.34;;;19.33;69.09
60920;BME280;59039;52.108;19.942;2023-09-19T05:02:30;99750.48;;;19.34;69.00
60920;BME280;59039;52.108;19.942;2023-09-19T05:04:56;99751.86;;;19.34;69.34
60920;BME280;59039;52.108;19.942;2023-09-19T05:07:21;99754.37;;;19.35;69.56
60920;BME280;59039;52.108;19.942;2023-09-19T05:09:46;99749.91;;;19.35;69.73
60920;BME280;59039;52.108;19.942;2023-09-19T05:12:11;99751.86;;;19.36;69.50
60920;BME280;59039;52.108;19.942;2023-09-19T05:14:36;99756.11;;;19.37;69.48
60920;BME280;59039;52.108;19.942;2023-09-19T05:17:02;99753.83;;;19.37;69.57
60920;BME280;59039;52.108;19.942;2023-09-19T05:19:27;99755.42;;;19.39;69.58
60920;BME280;59039;52.108;19.942;2023-09-19T05:21:52;99757.06;;;19.40;69.59
60920;BME280;59039;52.108;19.942;2023-09-19T05:24:17;99754.37;;;19.43;69.55
60920;BME280;59039;52.108;19.942;2023-09-19T05:26:42;99756.64;;;19.43;69.57
60920;BME280;59039;52.108;19.942;2023-09-19T05:29:08;99762.27;;;19.45;69.46
60920;BME280;59039;52.108;19.942;2023-09-19T05:31:33;99763.41;;;19.46;69.73
60920;BME280;59039;52.108;19.942;2023-09-19T05:33:58;99763.67;;;19.48;69.87
60920;BME280;59039;52.108;19.942;2023-09-19T05:36:23;99764.12;;;19.50;69.68
60920;BME280;59039;52.108;19.942;2023-09-19T05:38:49;99764.11;;;19.51;69.85
60920;BME280;59039;52.108;19.942;2023-09-19T05:41:14;99765.73;;;19.52;69.76
60920;BME280;59039;52.108;19.942;2023-09-19T05:43:39;99768.77;;;19.54;69.91
60920;BME280;59039;52.108;19.942;2023-09-19T05:46:05;99766.05;;;19.55;69.87
60920;BME280;59039;52.108;19.942;2023-09-19T05:48:30;99766.32;;;19.57;70.25
60920;BME280;59039;52.108;19.942;2023-09-19T05:50:56;99763.23;;;19.58;70.37
60920;BME280;59039;52.108;19.942;2023-09-19T05:53:21;99764.27;;;19.60;70.50
60920;BME280;59039;52.108;19.942;2023-09-19T05:55:46;99769.30;;;19.60;70.50
60920;BME280;59039;52.108;19.942;2023-09-19T05:58:11;99769.21;;;19.61;70.64
60920;BME280;59039;52.108;19.942;2023-09-19T06:00:37;99773.30;;;19.62;70.70
60920;BME280;59039;52.108;19.942;2023-09-19T06:03:02;99776.60;;;19.63;70.72
60920;BME280;59039;52.108;19.942;2023-09-19T06:05:28;99777.70;;;19.63;70.70
60920;BME280;59039;52.108;19.942;2023-09-19T06:07:53;99778.59;;;19.64;70.84
60920;BME280;59039;52.108;19.942;2023-09-19T06:10:19;99779.91;;;19.63;70.71
60920;BME280;59039;52.108;19.942;2023-09-19T06:12:44;99780.58;;;19.64;70.72
60920;BME280;59039;52.108;19.942;2023-09-19T06:15:11;99780.54;;;19.64;70.79
60920;BME280;59039;52.108;19.942;2023-09-19T06:17:36;99785.03;;;19.65;70.85
60920;BME280;59039;52.108;19.942;2023-09-19T06:20:02;99787.40;;;19.65;71.18
60920;BME280;59039;52.108;19.942;2023-09-19T06:22:27;99786.35;;;19.65;71.47
60920;BME280;59039;52.108;19.942;2023-09-19T06:24:52;99795.96;;;19.65;71.64
60920;BME280;59039;52.108;19.942;2023-09-19T06:27:17;99796.97;;;19.66;72.05
60920;BME280;59039;52.108;19.942;2023-09-19T06:29:42;99801.80;;;19.67;72.05
60920;BME280;59039;52.108;19.942;2023-09-19T06:32:08;99809.27;;;19.68;72.34
60920;BME280;59039;52.108;19.942;2023-09-19T06:34:33;99807.90;;;19.68;72.51
60920;BME280;59039;52.108;19.942;2023-09-19T06:36:59;99814.36;;;19.69;72.83
60920;BME280;59039;52.108;19.942;2023-09-19T06:39:24;99809.80;;;19.70;73.29
60920;BME280;59039;52.108;19.942;2023-09-19T06:41:49;99811.27;;;19.71;73.54
60920;BME280;59039;52.108;19.942;2023-09-19T06:44:14;99809.70;;;19.72;73.59
60920;BME280;59039;52.108;19.942;2023-09-19T06:46:39;99814.19;;;19.73;74.49
60920;BME280;59039;52.108;19.942;2023-09-19T06:49:05;99814.36;;;19.73;74.93
60920;BME280;59039;52.108;19.942;2023-09-19T06:51:30;99816.48;;;19.73;75.77
60920;BME280;59039;52.108;19.942;2023-09-19T06:53:55;99820.51;;;19.72;76.26
60920;BME280;59039;52.108;19.942;2023-09-19T06:56:20;99820.16;;;19.70;76.34
60920;BME280;59039;52.108;19.942;2023-09-19T06:58:46;99818.84;;;19.69;77.24
60920;BME280;59039;52.108;19.942;2023-09-19T07:01:11;99820.67;;;19.66;77.39
60920;BME280;59039;52.108;19.942;2023-09-19T07:03:36;99831.93;;;19.64;77.92
60920;BME280;59039;52.108;19.942;2023-09-19T07:06:01;99838.70;;;19.62;78.08
60920;BME280;59039;52.108;19.942;2023-09-19T07:08:26;99850.77;;;19.60;78.70
60920;BME280;59039;52.108;19.942;2023-09-19T07:10:51;99855.83;;;19.58;78.47
60920;BME280;59039;52.108;19.942;2023-09-19T07:13:17;99863.52;;;19.56;79.30
60920;BME280;59039;52.108;19.942;2023-09-19T07:15:43;99868.98;;;19.54;79.29
60920;BME280;59039;52.108;19.942;2023-09-19T07:18:09;99868.70;;;19.52;78.85
60920;BME280;59039;52.108;19.942;2023-09-19T07:20:34;99874.14;;;19.51;78.86
60920;BME280;59039;52.108;19.942;2023-09-19T07:22:59;99876.81;;;19.51;79.62
60920;BME280;59039;52.108;19.942;2023-09-19T07:25:26;99883.75;;;19.48;79.96
60920;BME280;59039;52.108;19.942;2023-09-19T07:27:51;99882.08;;;19.46;80.67
60920;BME280;59039;52.108;19.942;2023-09-19T07:30:16;99885.96;;;19.43;81.11
60920;BME280;59039;52.108;19.942;2023-09-19T07:32:42;99878.81;;;19.40;80.11
60920;BME280;59039;52.108;19.942;2023-09-19T07:35:07;99880.06;;;19.38;81.41
60920;BME280;59039;52.108;19.942;2023-09-19T07:37:33;99873.94;;;19.36;81.31
60920;BME280;59039;52.108;19.942;2023-09-19T07:39:59;99870.23;;;19.34;81.57
60920;BME280;59039;52.108;19.942;2023-09-19T07:42:24;99872.20;;;19.32;82.26
60920;BME280;59039;52.108;19.942;2023-09-19T07:44:49;99879.89;;;19.29;81.29
60920;BME280;59039;52.108;19.942;2023-09-19T07:47:15;99892.02;;;19.28;81.89
60920;BME280;59039;52.108;19.942;2023-09-19T07:49:40;99899.15;;;19.27;82.03
60920;BME280;59039;52.108;19.942;2023-09-19T07:52:05;99896.62;;;19.26;82.04
60920;BME280;59039;52.108;19.942;2023-09-19T07:54:30;99899.24;;;19.25;81.64
60920;BME280;59039;52.108;19.942;2023-09-19T07:56:55;99901.71;;;19.25;81.55
60920;BME280;59039;52.108;19.942;2023-09-19T07:59:21;99907.52;;;19.25;82.12
60920;BME280;59039;52.108;19.942;2023-09-19T08:01:46;99911.05;;;19.25;82.41
60920;BME280;59039;52.108;19.942;2023-09-19T08:04:11;99912.61;;;19.25;81.95
60920;BME280;59039;52.108;19.942;2023-09-19T08:06:36;99917.61;;;19.24;81.71
60920;BME280;59039;52.108;19.942;2023-09-19T08:09:02;99916.04;;;19.25;82.88
60920;BME280;59039;52.108;19.942;2023-09-19T08:11:27;99916.73;;;19.24;83.22
60920;BME280;59039;52.108;19.942;2023-09-19T08:13:52;99910.58;;;19.23;83.60
60920;BME280;59039;52.108;19.942;2023-09-19T08:16:18;99913.69;;;19.22;83.29
60920;BME280;59039;52.108;19.942;2023-09-19T08:18:47;99911.75;;;19.22;83.27
60920;BME280;59039;52.108;19.942;2023-09-19T08:21:12;99913.61;;;19.21;83.35
60920;BME280;59039;52.108;19.942;2023-09-19T08:23:38;99910.52;;;19.21;83.89
60920;BME280;59039;52.108;19.942;2023-09-19T08:26:03;99904.05;;;19.20;84.33
60920;BME280;59039;52.108;19.942;2023-09-19T08:28:28;99906.89;;;19.19;84.21
60920;BME280;59039;52.108;19.942;2023-09-19T08:30:53;99911.85;;;19.19;84.49
60920;BME280;59039;52.108;19.942;2023-09-19T08:33:19;99912.65;;;19.19;85.08
60920;BME280;59039;52.108;19.942;2023-09-19T08:35:44;99908.16;;;19.19;84.72
60920;BME280;59039;52.108;19.942;2023-09-19T08:38:09;99905.98;;;19.20;85.03
60920;BME280;59039;52.108;19.942;2023-09-19T08:40:38;99909.71;;;19.22;84.51
60920;BME280;59039;52.108;19.942;2023-09-19T08:43:03;99909.18;;;19.23;84.78
60920;BME280;59039;52.108;19.942;2023-09-19T08:45:30;99907.63;;;19.24;84.45
60920;BME280;59039;52.108;19.942;2023-09-19T08:50:49;99905.65;;;19.26;85.60
60920;BME280;59039;52.108;19.942;2023-09-19T08:53:31;99903.35;;;19.26;84.73
60920;BME280;59039;52.108;19.942;2023-09-19T08:56:00;99909.02;;;19.28;85.64
60920;BME280;59039;52.108;19.942;2023-09-19T08:58:27;99906.77;;;19.28;85.58
60920;BME280;59039;52.108;19.942;2023-09-19T09:00:56;99904.77;;;19.29;85.42
60920;BME280;59039;52.108;19.942;2023-09-19T09:03:23;99903.92;;;19.30;85.21
60920;BME280;59039;52.108;19.942;2023-09-19T09:05:50;99903.45;;;19.31;85.14
60920;BME280;59039;52.108;19.942;2023-09-19T09:08:17;99902.64;;;19.31;85.65
60920;BME280;59039;52.108;19.942;2023-09-19T09:10:44;99904.11;;;19.32;86.17
60920;BME280;59039;52.108;19.942;2023-09-19T09:13:10;99905.33;;;19.34;86.06
60920;BME280;59039;52.108;19.942;2023-09-19T09:15:36;99902.52;;;19.36;86.43
60920;BME280;59039;52.108;19.942;2023-09-19T09:18:02;99899.62;;;19.36;86.09
60920;BME280;59039;52.108;19.942;2023-09-19T09:20:28;99896.77;;;19.38;85.97
60920;BME280;59039;52.108;19.942;2023-09-19T09:22:55;99896.59;;;19.40;86.72
60920;BME280;59039;52.108;19.942;2023-09-19T09:25:22;99900.95;;;19.40;86.44
60920;BME280;59039;52.108;19.942;2023-09-19T09:27:58;99901.96;;;19.40;86.33
60920;BME280;59039;52.108;19.942;2023-09-19T09:30:36;99904.07;;;19.43;86.69
60920;BME280;59039;52.108;19.942;2023-09-19T09:33:11;99903.24;;;19.45;86.55
60920;BME280;59039;52.108;19.942;2023-09-19T09:35:50;99902.98;;;19.46;87.03
60920;BME280;59039;52.108;19.942;2023-09-19T09:38:15;99900.37;;;19.48;86.48
60920;BME280;59039;52.108;19.942;2023-09-19T09:40:49;99903.80;;;19.49;86.59
60920;BME280;59039;52.108;19.942;2023-09-19T09:43:37;99904.85;;;19.50;87.08
60920;BME280;59039;52.108;19.942;2023-09-19T09:46:17;99913.49;;;19.51;87.06
60920;BME280;59039;52.108;19.942;2023-09-19T09:48:42;99918.86;;;19.52;87.31
60920;BME280;59039;52.108;19.942;2023-09-19T09:51:08;99923.48;;;19.53;87.29
60920;BME280;59039;52.108;19.942;2023-09-19T09:53:33;99924.14;;;19.55;87.23
60920;BME280;59039;52.108;19.942;2023-09-19T09:58:25;99922.33;;;19.58;87.20
60920;BME280;59039;52.108;19.942;2023-09-19T10:00:55;99921.21;;;19.59;87.32
60920;BME280;59039;52.108;19.942;2023-09-19T10:03:20;99920.31;;;19.60;87.49
60920;BME280;59039;52.108;19.942;2023-09-19T10:05:46;99918.27;;;19.62;87.10
60920;BME280;59039;52.108;19.942;2023-09-19T10:08:11;99922.79;;;19.64;87.11
60920;BME280;59039;52.108;19.942;2023-09-19T10:10:40;99919.50;;;19.65;86.83
60920;BME280;59039;52.108;19.942;2023-09-19T10:13:06;99917.88;;;19.67;87.06
60920;BME280;59039;52.108;19.942;2023-09-19T10:15:32;99921.40;;;19.70;87.11
60920;BME280;59039;52.108;19.942;2023-09-19T10:18:00;99922.39;;;19.73;87.26
60920;BME280;59039;52.108;19.942;2023-09-19T10:20:26;99918.92;;;19.75;86.98
60920;BME280;59039;52.108;19.942;2023-09-19T10:22:53;99925.89;;;19.79;87.35
60920;BME280;59039;52.108;19.942;2023-09-19T10:25:19;99929.08;;;19.83;87.60
60920;BME280;59039;52.108;19.942;2023-09-19T10:27:45;99934.40;;;19.85;87.47
60920;BME280;59039;52.108;19.942;2023-09-19T10:30:10;99932.63;;;19.88;87.86
60920;BME280;59039;52.108;19.942;2023-09-19T10:32:40;99939.95;;;19.91;87.80
60920;BME280;59039;52.108;19.942;2023-09-19T10:35:07;99938.30;;;19.93;87.49
60920;BME280;59039;52.108;19.942;2023-09-19T10:37:34;99943.55;;;19.95;87.68
60920;BME280;59039;52.108;19.942;2023-09-19T10:40:00;99948.73;;;19.97;87.77
60920;BME280;59039;52.108;19.942;2023-09-19T10:42:26;99950.34;;;19.99;87.80
60920;BME280;59039;52.108;19.942;2023-09-19T10:44:52;99951.76;;;20.02;87.56
60920;BME280;59039;52.108;19.942;2023-09-19T10:47:17;99955.35;;;20.04;87.56
60920;BME280;59039;52.108;19.942;2023-09-19T10:49:44;99957.02;;;20.06;87.69
60920;BME280;59039;52.108;19.942;2023-09-19T10:52:09;99952.56;;;20.09;87.18
60920;BME280;59039;52.108;19.942;2023-09-19T10:54:35;99949.97;;;20.10;87.18
60920;BME280;59039;52.108;19.942;2023-09-19T10:57:01;99952.33;;;20.12;87.39
60920;BME280;59039;52.108;19.942;2023-09-19T10:59:26;99962.66;;;20.14;87.59
60920;BME280;59039;52.108;19.942;2023-09-19T11:01:55;99962.77;;;20.16;86.72
60920;BME280;59039;52.108;19.942;2023-09-19T11:04:31;99959.45;;;20.17;87.09
60920;BME280;59039;52.108;19.942;2023-09-19T11:10:02;99967.73;;;20.19;87.14
60920;BME280;59039;52.108;19.942;2023-09-19T11:12:48;99971.71;;;20.20;87.01
60920;BME280;59039;52.108;19.942;2023-09-19T11:16:02;99971.15;;;20.17;86.25
60920;BME280;59039;52.108;19.942;2023-09-19T11:18:51;99977.48;;;20.17;86.21
60920;BME280;59039;52.108;19.942;2023-09-19T11:26:42;99986.20;;;20.17;85.50
60920;BME280;59039;52.108;19.942;2023-09-19T11:29:27;99991.92;;;20.16;85.26
60920;BME280;59039;52.108;19.942;2023-09-19T11:31:52;99994.30;;;20.16;85.16
60920;BME280;59039;52.108;19.942;2023-09-19T11:40:09;100000.92;;;20.16;85.74
60920;BME280;59039;52.108;19.942;2023-09-19T11:42:43;99999.52;;;20.16;85.46
60920;BME280;59039;52.108;19.942;2023-09-19T11:48:07;100002.77;;;20.17;85.04
60920;BME280;59039;52.108;19.942;2023-09-19T11:50:33;100008.88;;;20.20;85.35
60920;BME280;59039;52.108;19.942;2023-09-19T11:53:01;100004.56;;;20.21;85.04
60920;BME280;59039;52.108;19.942;2023-09-19T11:55:28;100004.34;;;20.23;84.74
60920;BME280;59039;52.108;19.942;2023-09-19T11:57:55;100007.36;;;20.25;84.84
60920;BME280;59039;52.108;19.942;2023-09-19T12:00:21;100006.20;;;20.27;84.39
60920;BME280;59039;52.108;19.942;2023-09-19T12:02:51;100004.55;;;20.28;84.19
60920;BME280;59039;52.108;19.942;2023-09-19T12:05:28;99997.85;;;20.30;84.43
60920;BME280;59039;52.108;19.942;2023-09-19T12:07:54;100000.85;;;20.30;84.05
60920;BME280;59039;52.108;19.942;2023-09-19T12:10:19;100003.98;;;20.32;84.18
60920;BME280;59039;52.108;19.942;2023-09-19T12:12:48;100006.32;;;20.32;83.89
60920;BME280;59039;52.108;19.942;2023-09-19T12:15:13;100006.48;;;20.32;83.70
60920;BME280;59039;52.108;19.942;2023-09-19T12:17:40;100006.15;;;20.32;83.30
60920;BME280;59039;52.108;19.942;2023-09-19T12:20:06;100006.53;;;20.32;83.26
60920;BME280;59039;52.108;19.942;2023-09-19T12:22:42;100010.77;;;20.32;83.01
60920;BME280;59039;52.108;19.942;2023-09-19T12:25:07;100009.50;;;20.32;83.21
60920;BME280;59039;52.108;19.942;2023-09-19T12:27:42;100014.64;;;20.32;82.95
60920;BME280;59039;52.108;19.942;2023-09-19T12:30:07;100013.58;;;20.31;83.17
60920;BME280;59039;52.108;19.942;2023-09-19T12:32:36;100018.17;;;20.32;82.83
60920;BME280;59039;52.108;19.942;2023-09-19T12:35:01;100020.66;;;20.32;82.91
60920;BME280;59039;52.108;19.942;2023-09-19T12:37:26;100022.77;;;20.33;82.52
60920;BME280;59039;52.108;19.942;2023-09-19T12:39:52;100024.14;;;20.34;82.17
60920;BME280;59039;52.108;19.942;2023-09-19T12:42:19;100026.85;;;20.34;81.91
60920;BME280;59039;52.108;19.942;2023-09-19T12:44:47;100031.86;;;20.33;81.63
60920;BME280;59039;52.108;19.942;2023-09-19T12:47:15;100033.02;;;20.33;81.69
60920;BME280;59039;52.108;19.942;2023-09-19T12:50:10;100035.40;;;20.32;81.29
60920;BME280;59039;52.108;19.942;2023-09-19T12:52:37;100034.77;;;20.32;80.90
60920;BME280;59039;52.108;19.942;2023-09-19T12:55:02;100036.69;;;20.31;80.88
60920;BME280;59039;52.108;19.942;2023-09-19T12:57:28;100044.23;;;20.31;80.55
60920;BME280;59039;52.108;19.942;2023-09-19T12:59:53;100046.00;;;20.30;80.50
60920;BME280;59039;52.108;19.942;2023-09-19T13:02:18;100049.80;;;20.30;80.40
60920;BME280;59039;52.108;19.942;2023-09-19T13:04:52;100048.57;;;20.30;80.20
60920;BME280;59039;52.108;19.942;2023-09-19T13:07:39;100051.33;;;20.30;80.09
60920;BME280;59039;52.108;19.942;2023-09-19T13:10:05;100049.06;;;20.29;80.16
60920;BME280;59039;52.108;19.942;2023-09-19T13:12:35;100048.77;;;20.29;80.00
60920;BME280;59039;52.108;19.942;2023-09-19T13:15:14;100041.68;;;20.28;80.02
60920;BME280;59039;52.108;19.942;2023-09-19T13:17:44;100045.23;;;20.29;79.79